createdAt,value
2022-12-31T00:01:09.249Z,11.59
2022-12-31T00:03:36.271Z,11.57
2022-12-31T00:06:13.563Z,11.57
2022-12-31T00:08:40.885Z,11.59
2022-12-31T00:11:07.898Z,11.62
2022-12-31T00:13:35.296Z,11.59
2022-12-31T00:16:12.304Z,11.65
2022-12-31T00:18:39.866Z,11.67
2022-12-31T00:21:07.936Z,11.67
2022-12-31T00:23:37.976Z,11.63
2022-12-31T00:26:06.352Z,11.61
2022-12-31T00:28:33.617Z,11.57
2022-12-31T00:31:07.264Z,11.53
2022-12-31T00:33:34.276Z,11.53
2022-12-31T00:36:24.179Z,11.54
2022-12-31T00:38:52.023Z,11.58
2022-12-31T00:41:19.659Z,11.60
2022-12-31T00:43:46.457Z,11.67
2022-12-31T00:46:13.661Z,11.72
2022-12-31T00:48:40.801Z,11.75
2022-12-31T00:51:09.037Z,11.80
2022-12-31T00:53:36.568Z,11.78
2022-12-31T00:56:07.782Z,11.76
2022-12-31T00:58:35.362Z,11.84
2022-12-31T01:01:12.975Z,11.86
2022-12-31T01:03:40.108Z,11.88
2022-12-31T01:06:07.323Z,11.87
2022-12-31T01:08:34.460Z,11.90
2022-12-31T01:11:19.962Z,11.94
2022-12-31T01:13:48.623Z,11.95
2022-12-31T01:16:16.094Z,11.98
2022-12-31T01:18:43.333Z,12.08
2022-12-31T01:21:11.390Z,12.11
2022-12-31T01:23:38.626Z,12.12
2022-12-31T01:26:06.932Z,12.15
2022-12-31T01:28:36.679Z,12.17
2022-12-31T01:31:08.293Z,12.20
2022-12-31T01:33:36.006Z,12.21
2022-12-31T01:36:07.342Z,12.19
2022-12-31T01:38:34.738Z,12.22
2022-12-31T01:41:02.053Z,12.24
2022-12-31T01:44:04.669Z,12.26
2022-12-31T01:46:31.691Z,12.23
2022-12-31T01:49:01.885Z,12.23
2022-12-31T01:51:31.114Z,12.26
2022-12-31T01:53:59.816Z,12.25
2022-12-31T01:56:27.205Z,12.27
2022-12-31T01:58:59.524Z,12.24
2022-12-31T02:01:31.874Z,12.25
2022-12-31T02:04:01.181Z,12.23
2022-12-31T02:06:31.128Z,12.25
2022-12-31T02:09:07.488Z,12.29
2022-12-31T02:11:36.855Z,12.33
2022-12-31T02:14:07.691Z,12.31
2022-12-31T02:16:38.522Z,12.25
2022-12-31T02:19:19.755Z,12.20
2022-12-31T02:21:52.519Z,12.15
2022-12-31T02:24:52.075Z,12.12
2022-12-31T02:27:37.775Z,12.08
2022-12-31T02:30:09.775Z,11.99
2022-12-31T02:32:39.579Z,11.95
2022-12-31T02:35:13.177Z,11.89
2022-12-31T02:37:45.415Z,11.90
2022-12-31T02:40:15.426Z,11.89
2022-12-31T02:42:43.894Z,11.91
2022-12-31T02:45:12.383Z,11.92
2022-12-31T02:48:09.335Z,11.92
2022-12-31T02:50:41.722Z,11.89
2022-12-31T02:53:27.678Z,11.90
2022-12-31T02:55:54.601Z,11.89
2022-12-31T02:58:51.587Z,11.86
2022-12-31T03:01:44.249Z,11.87
2022-12-31T03:04:31.214Z,11.91
2022-12-31T03:07:06.751Z,11.90
2022-12-31T03:09:35.414Z,11.91
2022-12-31T03:12:22.753Z,11.91
2022-12-31T03:14:49.560Z,11.87
2022-12-31T03:17:17.728Z,11.88
2022-12-31T03:20:03.789Z,11.87
2022-12-31T03:22:32.516Z,11.87
2022-12-31T03:25:21.098Z,11.87
2022-12-31T03:27:49.150Z,11.89
2022-12-31T03:30:17.601Z,11.92
2022-12-31T03:32:45.621Z,11.90
2022-12-31T03:35:13.635Z,11.93
2022-12-31T03:37:41.001Z,11.92
2022-12-31T03:40:09.204Z,11.94
2022-12-31T03:42:36.015Z,11.94
2022-12-31T03:45:03.029Z,11.97
2022-12-31T03:47:29.940Z,11.97
2022-12-31T03:49:56.837Z,11.95
2022-12-31T03:52:23.795Z,11.94
2022-12-31T03:54:50.657Z,11.97
2022-12-31T03:57:17.480Z,11.93
2022-12-31T03:59:44.350Z,11.93
2022-12-31T04:02:11.357Z,11.93
2022-12-31T04:04:38.415Z,11.96
2022-12-31T04:07:05.339Z,11.97
2022-12-31T04:09:32.189Z,11.99
2022-12-31T04:11:59.135Z,11.95
2022-12-31T04:14:25.908Z,11.94
2022-12-31T04:16:52.703Z,11.95
2022-12-31T04:19:19.840Z,11.94
2022-12-31T04:21:47.103Z,12.00
2022-12-31T04:24:13.953Z,11.98
2022-12-31T04:26:41.174Z,11.99
2022-12-31T04:29:09.451Z,11.98
2022-12-31T04:31:36.435Z,12.01
2022-12-31T04:34:03.996Z,12.03
2022-12-31T04:36:30.841Z,11.98
2022-12-31T04:38:57.644Z,11.94
2022-12-31T04:41:27.152Z,11.99
2022-12-31T04:43:54.996Z,12.07
2022-12-31T04:46:23.756Z,12.06
2022-12-31T04:48:51.064Z,12.05
2022-12-31T04:51:17.882Z,12.07
2022-12-31T04:53:44.719Z,12.03
2022-12-31T04:56:11.984Z,12.06
2022-12-31T04:58:39.089Z,12.00
2022-12-31T05:01:06.061Z,12.02
2022-12-31T05:03:33.831Z,12.00
2022-12-31T05:06:05.262Z,11.94
2022-12-31T05:08:32.727Z,11.95
2022-12-31T05:10:59.739Z,11.94
2022-12-31T05:13:32.892Z,11.94
2022-12-31T05:16:01.788Z,11.93
2022-12-31T05:18:29.038Z,11.93
2022-12-31T05:20:55.845Z,11.90
2022-12-31T05:23:22.807Z,11.85
2022-12-31T05:25:49.900Z,11.85
2022-12-31T05:28:17.446Z,11.87
2022-12-31T05:30:45.575Z,11.86
2022-12-31T05:33:12.428Z,11.86
2022-12-31T05:35:39.291Z,11.82
2022-12-31T05:38:06.190Z,11.85
2022-12-31T05:40:33.149Z,11.83
2022-12-31T05:43:00.027Z,11.79
2022-12-31T05:45:30.686Z,11.81
2022-12-31T05:47:58.027Z,11.81
2022-12-31T05:50:25.528Z,11.81
2022-12-31T05:52:52.427Z,11.75
2022-12-31T05:55:19.269Z,11.75
2022-12-31T05:57:46.163Z,11.74
2022-12-31T06:00:13.221Z,11.75
2022-12-31T06:02:40.302Z,11.66
2022-12-31T06:05:07.561Z,11.66
2022-12-31T06:07:34.637Z,11.64
2022-12-31T06:10:01.700Z,11.56
2022-12-31T06:12:28.665Z,11.58
2022-12-31T06:14:55.550Z,11.57
2022-12-31T06:17:22.895Z,11.55
2022-12-31T06:19:49.913Z,11.54
2022-12-31T06:22:16.814Z,11.54
2022-12-31T06:24:43.695Z,11.54
2022-12-31T06:27:10.660Z,11.54
2022-12-31T06:29:37.556Z,11.49
2022-12-31T06:32:04.668Z,11.50
2022-12-31T06:34:31.708Z,11.51
2022-12-31T06:36:59.336Z,11.49
2022-12-31T06:39:27.368Z,11.47
2022-12-31T06:41:55.069Z,11.46
2022-12-31T06:44:22.688Z,11.46
2022-12-31T06:46:50.366Z,11.43
2022-12-31T06:49:17.377Z,11.41
2022-12-31T06:51:46.172Z,11.42
2022-12-31T06:54:13.736Z,11.40
2022-12-31T06:56:41.267Z,11.38
2022-12-31T06:59:17.920Z,11.38
2022-12-31T07:01:47.927Z,11.34
2022-12-31T07:04:33.442Z,11.36
2022-12-31T07:07:03.038Z,11.36
2022-12-31T07:09:39.089Z,11.37
2022-12-31T07:12:19.565Z,11.33
2022-12-31T07:14:49.619Z,11.34
2022-12-31T07:17:38.520Z,11.34
2022-12-31T07:20:07.280Z,11.33
2022-12-31T07:22:34.523Z,11.31
2022-12-31T07:25:02.166Z,11.36
2022-12-31T07:27:40.170Z,11.36
2022-12-31T07:30:11.698Z,11.33
2022-12-31T07:32:38.518Z,11.29
2022-12-31T07:35:14.310Z,11.24
2022-12-31T07:37:56.584Z,11.26
2022-12-31T07:40:40.517Z,11.26
2022-12-31T07:43:17.519Z,11.22
2022-12-31T07:45:50.130Z,11.20
2022-12-31T07:48:27.313Z,11.21
2022-12-31T07:50:55.364Z,11.25
2022-12-31T07:53:23.208Z,11.28
2022-12-31T07:56:00.005Z,11.25
2022-12-31T07:58:26.799Z,11.24
2022-12-31T08:00:56.233Z,11.24
2022-12-31T08:03:42.061Z,11.27
2022-12-31T08:06:16.420Z,11.25
2022-12-31T08:08:43.213Z,11.21
2022-12-31T08:11:15.750Z,11.20
2022-12-31T08:13:42.807Z,11.21
2022-12-31T08:16:11.036Z,11.18
2022-12-31T08:18:38.029Z,11.18
2022-12-31T08:21:28.207Z,11.19
2022-12-31T08:24:07.145Z,11.24
2022-12-31T08:26:53.403Z,11.23
2022-12-31T08:29:35.756Z,11.24
2022-12-31T08:32:05.653Z,11.26
2022-12-31T08:34:40.300Z,11.25
2022-12-31T08:37:14.752Z,11.27
2022-12-31T08:39:59.835Z,11.33
2022-12-31T08:42:37.142Z,11.37
2022-12-31T08:45:12.554Z,11.39
2022-12-31T08:48:00.224Z,11.40
2022-12-31T08:50:27.660Z,11.40
2022-12-31T08:52:54.677Z,11.36
2022-12-31T08:55:22.120Z,11.38
2022-12-31T08:58:04.069Z,11.39
2022-12-31T09:00:32.035Z,11.40
2022-12-31T09:03:04.925Z,11.42
2022-12-31T09:05:35.276Z,11.40
2022-12-31T09:08:20.714Z,11.40
2022-12-31T09:11:11.178Z,11.45
2022-12-31T09:13:47.328Z,11.46
2022-12-31T09:16:18.983Z,11.45
2022-12-31T09:18:45.938Z,11.48
2022-12-31T09:21:13.932Z,11.49
2022-12-31T09:23:41.248Z,11.50
2022-12-31T09:26:08.316Z,11.54
2022-12-31T09:28:43.256Z,11.57
2022-12-31T09:31:18.425Z,11.61
2022-12-31T09:34:01.172Z,11.63
2022-12-31T09:36:39.453Z,11.64
2022-12-31T09:39:12.823Z,11.68
2022-12-31T09:41:58.214Z,11.70
2022-12-31T09:44:25.030Z,11.74
2022-12-31T09:46:52.082Z,11.77
2022-12-31T09:49:37.349Z,11.78
2022-12-31T09:52:11.221Z,11.79
2022-12-31T09:54:50.381Z,11.79
2022-12-31T09:57:26.434Z,11.80
2022-12-31T09:59:59.313Z,11.83
2022-12-31T10:02:45.882Z,11.84
2022-12-31T10:05:22.236Z,11.79
2022-12-31T10:07:59.680Z,11.79
2022-12-31T10:10:26.567Z,11.77
2022-12-31T10:13:15.630Z,11.82
2022-12-31T10:15:48.483Z,11.83
2022-12-31T10:18:22.102Z,11.85
2022-12-31T10:21:08.128Z,11.87
2022-12-31T10:23:35.145Z,11.88
2022-12-31T10:26:21.103Z,11.89
2022-12-31T10:29:09.751Z,11.95
2022-12-31T10:31:39.824Z,11.93
2022-12-31T10:34:21.834Z,12.00
2022-12-31T10:36:48.606Z,12.02
2022-12-31T10:39:22.228Z,12.09
2022-12-31T10:42:09.620Z,12.08
2022-12-31T10:44:39.274Z,12.16
2022-12-31T10:47:25.063Z,12.16
2022-12-31T10:49:54.942Z,12.20
2022-12-31T10:52:21.807Z,12.23
2022-12-31T10:54:51.516Z,12.30
2022-12-31T10:57:36.664Z,12.35
2022-12-31T11:00:10.724Z,12.39
2022-12-31T11:02:40.633Z,12.43
2022-12-31T11:05:10.728Z,12.44
2022-12-31T11:07:37.584Z,12.48
2022-12-31T11:10:04.458Z,12.51
2022-12-31T11:12:51.757Z,12.56
2022-12-31T11:15:21.650Z,12.58
2022-12-31T11:18:06.946Z,12.62
2022-12-31T11:20:52.282Z,12.70
2022-12-31T11:23:27.078Z,12.74
2022-12-31T11:26:12.572Z,12.84
2022-12-31T11:28:51.389Z,12.90
2022-12-31T11:31:18.530Z,13.01
2022-12-31T11:34:04.447Z,13.07
2022-12-31T11:36:46.680Z,13.10
2022-12-31T11:39:13.464Z,13.16
2022-12-31T11:41:48.675Z,13.21
2022-12-31T11:44:28.669Z,13.24
2022-12-31T11:47:07.802Z,13.31
2022-12-31T11:49:55.700Z,13.34
2022-12-31T11:52:28.937Z,13.42
2022-12-31T11:55:01.866Z,13.44
2022-12-31T11:57:34.189Z,13.47
2022-12-31T12:00:04.917Z,13.52
2022-12-31T12:02:35.903Z,13.53
2022-12-31T12:05:10.605Z,13.56
2022-12-31T12:07:38.647Z,13.56
2022-12-31T12:10:15.962Z,13.59
2022-12-31T12:12:44.703Z,13.57
2022-12-31T12:15:17.270Z,13.59
2022-12-31T12:17:44.184Z,13.59
2022-12-31T12:20:19.731Z,13.61
2022-12-31T12:22:54.777Z,13.70
2022-12-31T12:25:23.416Z,13.87
2022-12-31T12:27:50.440Z,14.01
2022-12-31T12:30:17.481Z,14.12
2022-12-31T12:32:51.252Z,14.16
2022-12-31T12:35:23.542Z,14.24
2022-12-31T12:37:58.716Z,14.41
2022-12-31T12:40:33.315Z,14.51
2022-12-31T12:43:02.099Z,14.63
2022-12-31T12:45:36.207Z,14.62
2022-12-31T12:48:07.749Z,14.66
2022-12-31T12:50:45.777Z,14.67
2022-12-31T12:53:18.368Z,14.49
2022-12-31T12:55:57.609Z,14.40
2022-12-31T12:58:34.515Z,14.33
2022-12-31T13:01:04.510Z,14.27
2022-12-31T13:04:31.892Z,14.20
2022-12-31T13:06:47.826Z,14.20
2022-12-31T13:09:14.723Z,14.19
2022-12-31T13:12:10.900Z,14.21
2022-12-31T13:14:37.768Z,14.28
2022-12-31T13:17:13.468Z,14.32
2022-12-31T13:19:46.807Z,14.32
2022-12-31T13:22:16.604Z,14.35
2022-12-31T13:24:49.646Z,14.38
2022-12-31T13:27:21.739Z,14.35
2022-12-31T13:29:49.186Z,14.29
2022-12-31T13:32:21.722Z,14.19
2022-12-31T13:34:51.602Z,14.11
2022-12-31T13:37:23.218Z,14.09
2022-12-31T13:39:52.249Z,14.06
2022-12-31T13:42:23.607Z,14.03
2022-12-31T13:44:59.595Z,14.00
2022-12-31T13:47:32.303Z,14.00
2022-12-31T13:50:00.850Z,14.00
2022-12-31T13:52:32.500Z,14.00
2022-12-31T13:55:32.157Z,14.02
2022-12-31T13:58:05.921Z,13.98
2022-12-31T14:00:36.317Z,13.95
2022-12-31T14:03:16.810Z,13.90
2022-12-31T14:05:48.874Z,13.88
2022-12-31T14:08:15.878Z,13.91
2022-12-31T14:10:52.047Z,13.87
2022-12-31T14:13:34.394Z,13.87
2022-12-31T14:16:05.734Z,13.87
2022-12-31T14:18:48.047Z,13.84
2022-12-31T14:21:21.816Z,13.86
2022-12-31T14:24:06.460Z,13.84
2022-12-31T14:26:36.074Z,13.87
2022-12-31T14:29:03.081Z,13.89
2022-12-31T14:31:30.066Z,13.93
2022-12-31T14:34:01.765Z,13.94
2022-12-31T14:36:50.565Z,14.00
2022-12-31T14:39:35.961Z,14.08
2022-12-31T14:42:18.477Z,14.18
2022-12-31T14:44:45.325Z,14.18
2022-12-31T14:47:31.071Z,14.16
2022-12-31T14:50:01.001Z,14.15
2022-12-31T14:52:36.067Z,14.12
2022-12-31T14:55:09.091Z,14.09
2022-12-31T14:58:09.693Z,14.04
2022-12-31T15:00:38.307Z,14.09
2022-12-31T15:03:07.122Z,14.07
2022-12-31T15:05:35.568Z,14.04
2022-12-31T15:08:13.697Z,14.04
2022-12-31T15:10:46.613Z,14.06
2022-12-31T15:13:31.651Z,14.12
2022-12-31T15:16:08.620Z,14.14
2022-12-31T15:18:50.006Z,14.15
2022-12-31T15:21:17.132Z,14.16
2022-12-31T15:23:44.540Z,14.16
2022-12-31T15:26:25.316Z,14.21
2022-12-31T15:29:00.560Z,14.27
2022-12-31T15:31:27.443Z,14.28
2022-12-31T15:33:54.523Z,14.27
2022-12-31T15:36:22.805Z,14.26
2022-12-31T15:38:51.382Z,14.26
2022-12-31T15:41:36.400Z,14.24
2022-12-31T15:44:18.050Z,14.25
2022-12-31T15:46:45.683Z,14.16
2022-12-31T15:49:18.630Z,14.22
2022-12-31T15:52:01.551Z,14.23
2022-12-31T15:54:35.912Z,14.19
2022-12-31T15:57:09.112Z,14.18
2022-12-31T15:59:38.311Z,14.10
2022-12-31T16:02:16.808Z,14.05
2022-12-31T16:04:44.383Z,14.01
2022-12-31T16:07:12.479Z,13.97
2022-12-31T16:09:40.435Z,13.91
2022-12-31T16:12:12.559Z,13.88
2022-12-31T16:14:42.105Z,13.81
2022-12-31T16:17:27.176Z,13.75
2022-12-31T16:19:54.503Z,13.65
2022-12-31T16:22:38.209Z,13.60
2022-12-31T16:27:55.875Z,13.52
2022-12-31T16:30:26.013Z,13.54
2022-12-31T16:32:58.256Z,13.56
2022-12-31T16:35:32.866Z,13.53
2022-12-31T16:38:14.256Z,13.52
2022-12-31T16:40:42.367Z,13.53
2022-12-31T16:43:32.486Z,13.58
2022-12-31T16:46:13.113Z,13.55
2022-12-31T16:48:40.758Z,13.53
2022-12-31T16:51:14.389Z,13.57
2022-12-31T16:53:42.215Z,13.60
2022-12-31T16:56:09.176Z,13.62
2022-12-31T16:58:45.297Z,13.61
2022-12-31T17:01:17.185Z,13.65
2022-12-31T17:03:46.132Z,13.70
2022-12-31T17:06:17.395Z,13.72
2022-12-31T17:09:04.599Z,13.71
2022-12-31T17:11:36.646Z,13.75
2022-12-31T17:14:07.033Z,13.82
2022-12-31T17:16:39.318Z,14.00
2022-12-31T17:19:06.380Z,14.17
2022-12-31T17:21:33.692Z,14.24
2022-12-31T17:24:02.130Z,14.26
2022-12-31T17:26:30.676Z,14.28
2022-12-31T17:28:58.877Z,14.32
2022-12-31T17:31:25.781Z,14.36
2022-12-31T17:34:05.081Z,14.32
2022-12-31T17:36:31.969Z,14.31
2022-12-31T17:39:18.338Z,14.30
2022-12-31T17:41:47.906Z,14.29
2022-12-31T17:44:26.994Z,14.31
2022-12-31T17:46:54.121Z,14.32
2022-12-31T17:49:27.122Z,14.31
2022-12-31T17:51:54.188Z,14.35
2022-12-31T17:54:21.688Z,14.30
2022-12-31T17:56:49.659Z,14.29
2022-12-31T17:59:23.809Z,14.29
2022-12-31T18:01:50.821Z,14.27
2022-12-31T18:04:19.472Z,14.28
2022-12-31T18:06:46.737Z,14.28
2022-12-31T18:09:13.568Z,14.28
2022-12-31T18:11:41.005Z,14.28
2022-12-31T18:14:08.018Z,14.31
2022-12-31T18:16:36.555Z,14.29
2022-12-31T18:19:23.570Z,14.29
2022-12-31T18:22:00.886Z,14.32
2022-12-31T18:24:28.548Z,14.30
2022-12-31T18:26:55.673Z,14.35
2022-12-31T18:29:22.916Z,14.30
2022-12-31T18:31:50.323Z,14.31
2022-12-31T18:34:18.282Z,14.33
2022-12-31T18:36:45.799Z,14.26
2022-12-31T18:39:12.859Z,14.32
2022-12-31T18:41:49.411Z,14.28
2022-12-31T18:44:17.608Z,14.29
2022-12-31T18:46:44.801Z,14.35
2022-12-31T18:49:11.910Z,14.35
2022-12-31T18:51:39.278Z,14.34
2022-12-31T18:54:07.807Z,14.34
2022-12-31T18:56:34.644Z,14.35
2022-12-31T18:59:02.791Z,14.42
2022-12-31T19:01:31.535Z,14.43
2022-12-31T19:04:00.568Z,14.46
2022-12-31T19:06:27.891Z,14.51
2022-12-31T19:08:55.132Z,14.57
2022-12-31T19:11:23.290Z,14.60
2022-12-31T19:13:50.351Z,14.63
2022-12-31T19:16:18.070Z,14.69
2022-12-31T19:18:45.394Z,14.70
2022-12-31T19:21:17.218Z,14.77
2022-12-31T19:23:44.654Z,14.81
2022-12-31T19:26:13.921Z,14.86
2022-12-31T19:28:45.178Z,14.95
2022-12-31T19:31:12.506Z,15.02
2022-12-31T19:33:40.876Z,15.06
2022-12-31T19:36:13.843Z,15.07
2022-12-31T19:38:41.126Z,15.09
2022-12-31T19:41:13.211Z,15.10
2022-12-31T19:43:40.093Z,15.10
2022-12-31T19:46:07.232Z,15.09
2022-12-31T19:48:34.197Z,15.10
2022-12-31T19:51:01.126Z,15.11
2022-12-31T19:53:28.056Z,15.13
2022-12-31T19:55:55.222Z,15.16
2022-12-31T19:58:25.769Z,15.19
2022-12-31T20:01:02.372Z,15.23
2022-12-31T20:03:31.958Z,15.21
2022-12-31T20:06:09.346Z,15.21
2022-12-31T20:08:37.288Z,15.22
2022-12-31T20:11:20.736Z,15.23
2022-12-31T20:13:48.430Z,15.23
2022-12-31T20:16:17.508Z,15.26
2022-12-31T20:18:45.330Z,15.26
2022-12-31T20:21:14.991Z,15.28
2022-12-31T20:23:42.833Z,15.27
2022-12-31T20:26:10.182Z,15.28
2022-12-31T20:28:37.472Z,15.31
2022-12-31T20:31:06.887Z,15.28
2022-12-31T20:33:35.149Z,15.31
2022-12-31T20:36:03.611Z,15.31
2022-12-31T20:38:31.557Z,15.34
2022-12-31T20:41:04.352Z,15.35
2022-12-31T20:43:32.281Z,15.39
2022-12-31T20:46:00.250Z,15.41
2022-12-31T20:48:27.305Z,15.48
2022-12-31T20:50:55.365Z,15.48
2022-12-31T20:53:22.328Z,15.50
2022-12-31T20:55:49.342Z,15.55
2022-12-31T20:58:16.517Z,15.56
2022-12-31T21:00:49.193Z,15.67
2022-12-31T21:03:53.588Z,15.67
2022-12-31T21:06:05.770Z,15.65
2022-12-31T21:08:35.065Z,15.64
2022-12-31T21:11:02.678Z,15.68
2022-12-31T21:13:31.270Z,15.68
2022-12-31T21:15:58.700Z,15.66
2022-12-31T21:18:25.604Z,15.59
2022-12-31T21:20:53.059Z,15.58
2022-12-31T21:23:20.451Z,15.59
2022-12-31T21:25:50.169Z,15.63
2022-12-31T21:28:17.948Z,15.62
2022-12-31T21:30:44.884Z,15.63
2022-12-31T21:33:12.179Z,15.69
2022-12-31T21:35:44.432Z,15.70
2022-12-31T21:38:15.440Z,15.72
2022-12-31T21:40:44.406Z,15.73
2022-12-31T21:43:12.034Z,15.75
2022-12-31T21:45:39.933Z,15.70
2022-12-31T21:48:24.857Z,15.72
2022-12-31T21:50:53.368Z,15.74
2022-12-31T21:53:27.122Z,15.79
2022-12-31T21:56:13.676Z,15.84
2022-12-31T21:58:41.692Z,15.83
2022-12-31T22:01:33.362Z,15.82
2022-12-31T22:04:00.716Z,15.80
2022-12-31T22:06:27.811Z,15.83
2022-12-31T22:08:55.659Z,15.86
2022-12-31T22:11:24.544Z,15.87
2022-12-31T22:13:51.651Z,15.94
2022-12-31T22:16:20.284Z,15.97
2022-12-31T22:18:47.478Z,16.01
2022-12-31T22:21:19.208Z,16.06
2022-12-31T22:23:50.798Z,16.04
2022-12-31T22:26:19.045Z,16.07
2022-12-31T22:28:46.356Z,16.07
2022-12-31T22:31:15.449Z,16.06
2022-12-31T22:33:43.098Z,16.06
2022-12-31T22:36:17.675Z,16.06
2022-12-31T22:38:44.584Z,16.08
2022-12-31T22:41:15.355Z,16.07
2022-12-31T22:43:43.923Z,16.11
2022-12-31T22:46:12.806Z,16.19
2022-12-31T22:48:40.371Z,16.27
2022-12-31T22:51:07.706Z,16.25
2022-12-31T22:53:34.898Z,16.15
2022-12-31T22:56:01.844Z,16.20
2022-12-31T22:58:28.794Z,16.22
2022-12-31T23:00:55.718Z,16.23
2022-12-31T23:03:22.998Z,16.23
2022-12-31T23:05:51.650Z,16.21
2022-12-31T23:08:23.123Z,16.18
2022-12-31T23:11:00.578Z,16.25
2022-12-31T23:13:50.712Z,16.28
2022-12-31T23:16:38.146Z,16.30
2022-12-31T23:19:24.165Z,16.36
2022-12-31T23:22:10.030Z,16.33
2022-12-31T23:24:37.043Z,16.36
2022-12-31T23:27:04.363Z,16.36
2022-12-31T23:29:31.979Z,16.35
2022-12-31T23:31:59.197Z,16.36
2022-12-31T23:34:26.175Z,16.34
2022-12-31T23:36:53.033Z,16.35
2022-12-31T23:39:21.433Z,16.36
2022-12-31T23:41:48.856Z,16.36
2022-12-31T23:44:16.258Z,16.33
2022-12-31T23:46:45.216Z,16.37
2022-12-31T23:49:13.211Z,16.35
2022-12-31T23:51:41.054Z,16.30
2022-12-31T23:54:08.326Z,16.22
2022-12-31T23:56:35.839Z,16.26
2022-12-31T23:59:02.778Z,16.26
